Time,TemperatureF,DewpointF,PressureIn,WindDirection,WindDirectionDegrees,WindSpeedMPH,WindSpeedGustMPH,Humidity,HourlyPrecipIn,Conditions,Clouds,dailyrainin,SoftwareType,DateUTC
2013-12-20 00:00:00,58.2,54.0,29.68,South,178,0.0,10.0,86,0.00,,---,0.00,VWS V14.01,2013-12-20 06:00:00,
2013-12-20 00:02:00,58.2,54.0,29.68,South,180,3.0,6.0,86,0.00,,---,0.00,VWS V14.01,2013-12-20 06:02:00,
2013-12-20 00:05:00,58.1,53.9,29.68,SSW,198,4.0,7.0,86,0.00,,---,0.00,VWS V14.01,2013-12-20 06:05:00,
2013-12-20 00:08:00,58.0,53.8,29.68,South,191,7.0,7.0,86,0.00,,---,0.00,VWS V14.01,2013-12-20 06:08:00,
2013-12-20 00:11:00,58.0,54.2,29.67,SSW,202,6.0,8.0,87,0.00,,---,0.00,VWS V14.01,2013-12-20 06:11:00,
2013-12-20 00:14:00,58.1,53.9,29.67,SSW,207,7.0,8.0,86,0.00,,---,0.00,VWS V14.01,2013-12-20 06:14:00,
2013-12-20 00:17:00,58.1,53.9,29.67,SSW,196,3.0,8.0,86,0.00,,---,0.00,VWS V14.01,2013-12-20 06:17:00,
2013-12-20 00:20:00,58.0,53.8,29.67,SSW,194,0.0,8.0,86,0.00,,---,0.00,VWS V14.01,2013-12-20 06:20:00,
2013-12-20 00:23:00,58.0,53.8,29.67,SSW,196,2.0,8.0,86,0.00,,---,0.00,VWS V14.01,2013-12-20 06:23:00,
2013-12-20 00:26:00,57.8,54.0,29.67,SSW,207,3.0,8.0,87,0.00,,---,0.00,VWS V14.01,2013-12-20 06:26:00,
2013-12-20 00:29:00,57.8,54.0,29.67,SSW,197,4.0,8.0,87,0.00,,---,0.00,VWS V14.01,2013-12-20 06:29:00,
2013-12-20 00:30:00,57.8,54.0,29.67,SSW,193,5.0,8.0,87,0.00,,---,0.00,VWS V14.01,2013-12-20 06:30:00,
2013-12-20 00:32:00,57.8,54.0,29.67,SSW,197,0.0,8.0,87,0.00,,---,0.00,VWS V14.01,2013-12-20 06:32:00,
2013-12-20 00:35:00,57.7,53.9,29.67,SSW,192,3.0,8.0,87,0.00,,---,0.00,VWS V14.01,2013-12-20 06:35:00,
2013-12-20 00:38:00,57.7,53.9,29.67,SSW,202,3.0,8.0,87,0.00,,---,0.00,VWS V14.01,2013-12-20 06:38:00,
2013-12-20 00:41:00,57.7,53.9,29.67,SSW,211,4.0,8.0,87,0.00,,---,0.00,VWS V14.01,2013-12-20 06:41:00,
2013-12-20 00:44:00,57.7,53.9,29.67,SSW,195,6.0,8.0,87,0.00,,---,0.00,VWS V14.01,2013-12-20 06:44:00,
2013-12-20 00:47:00,57.7,53.9,29.67,SSW,198,6.0,8.0,87,0.00,,---,0.00,VWS V14.01,2013-12-20 06:47:00,
2013-12-20 00:50:00,57.7,54.2,29.67,SSW,192,2.0,8.0,88,0.00,,---,0.00,VWS V14.01,2013-12-20 06:50:00,
2013-12-20 00:53:00,57.7,54.2,29.67,SW,219,4.0,9.0,88,0.00,,---,0.00,VWS V14.01,2013-12-20 06:53:00,
2013-12-20 00:56:00,57.7,54.2,29.67,SSW,206,4.0,9.0,88,0.00,,---,0.00,VWS V14.01,2013-12-20 06:56:00,
2013-12-20 00:59:00,57.7,54.2,29.67,SSW,202,7.0,9.0,88,0.00,,---,0.00,VWS V14.01,2013-12-20 06:59:00,
2013-12-20 01:00:00,57.7,54.2,29.67,SSW,202,2.0,9.0,88,0.00,,---,0.00,VWS V14.01,2013-12-20 07:00:00,
2013-12-20 01:02:00,57.8,54.3,29.67,SSW,206,1.0,7.0,88,0.00,,---,0.00,VWS V14.01,2013-12-20 07:02:00,
2013-12-20 01:05:00,57.7,54.2,29.67,SW,214,5.0,7.0,88,0.00,,---,0.00,VWS V14.01,2013-12-20 07:05:00,
2013-12-20 01:08:00,57.7,54.2,29.67,SSW,198,5.0,7.0,88,0.00,,---,0.00,VWS V14.01,2013-12-20 07:08:00,
2013-12-20 01:11:00,57.8,54.3,29.67,SSW,199,3.0,7.0,88,0.00,,---,0.00,VWS V14.01,2013-12-20 07:11:00,
2013-12-20 01:14:00,57.8,54.3,29.67,SW,221,0.0,7.0,88,0.00,,---,0.00,VWS V14.01,2013-12-20 07:14:00,
2013-12-20 01:18:00,57.8,54.3,29.68,SW,232,0.0,7.0,88,0.00,,---,0.00,VWS V14.01,2013-12-20 07:18:00,
2013-12-20 01:21:00,57.8,54.3,29.68,WNW,286,0.0,7.0,88,0.00,,---,0.00,VWS V14.01,2013-12-20 07:21:00,
2013-12-20 01:24:00,57.9,54.4,29.69,WNW,292,0.0,7.0,88,0.00,,---,0.00,VWS V14.01,2013-12-20 07:24:00,
2013-12-20 01:27:00,57.9,54.4,29.69,WNW,291,0.0,7.0,88,0.00,,---,0.00,VWS V14.01,2013-12-20 07:27:00,
2013-12-20 01:30:00,57.9,54.4,29.69,WNW,297,0.0,7.0,88,0.00,,---,0.00,VWS V14.01,2013-12-20 07:30:00,
2013-12-20 01:36:00,58.0,54.5,29.69,WNW,291,0.0,0.0,88,0.00,,---,0.00,VWS V14.01,2013-12-20 07:36:00,
2013-12-20 01:42:00,58.0,54.5,29.70,WSW,243,0.0,0.0,88,0.00,,---,0.00,VWS V14.01,2013-12-20 07:42:00,
2013-12-20 01:45:00,58.0,54.5,29.70,WSW,246,0.0,0.0,88,0.00,,---,0.00,VWS V14.01,2013-12-20 07:45:00,
2013-12-20 01:48:00,58.0,54.5,29.70,West,267,0.0,0.0,88,0.00,,---,0.00,VWS V14.01,2013-12-20 07:48:00,
2013-12-20 01:51:00,58.0,54.5,29.70,West,266,0.0,0.0,88,0.00,,---,0.00,VWS V14.01,2013-12-20 07:51:00,
2013-12-20 01:57:00,58.1,54.6,29.70,West,266,0.0,0.0,88,0.00,,---,0.00,VWS V14.01,2013-12-20 07:57:00,
2013-12-20 02:00:00,58.1,54.6,29.70,West,266,0.0,0.0,88,0.00,,---,0.00,VWS V14.01,2013-12-20 08:00:00,
2013-12-20 02:03:00,58.1,54.6,29.70,West,266,0.0,0.0,88,0.00,,---,0.00,VWS V14.01,2013-12-20 08:03:00,
2013-12-20 02:06:00,58.0,54.5,29.71,West,266,0.0,0.0,88,0.00,,---,0.00,VWS V14.01,2013-12-20 08:06:00,
2013-12-20 02:09:00,57.9,54.4,29.71,West,266,0.0,0.0,88,0.00,,---,0.00,VWS V14.01,2013-12-20 08:09:00,
2013-12-20 02:12:00,57.8,54.3,29.71,West,266,0.0,0.0,88,0.00,,---,0.00,VWS V14.01,2013-12-20 08:12:00,
2013-12-20 02:15:00,57.6,54.1,29.71,West,266,0.0,0.0,88,0.00,,---,0.00,VWS V14.01,2013-12-20 08:15:00,
2013-12-20 02:18:00,57.5,54.0,29.71,West,266,0.0,0.0,88,0.00,,---,0.00,VWS V14.01,2013-12-20 08:18:00,
2013-12-20 02:21:00,57.3,53.8,29.72,West,266,0.0,0.0,88,0.00,,---,0.00,VWS V14.01,2013-12-20 08:21:00,
2013-12-20 02:24:00,57.1,53.6,29.72,West,266,0.0,0.0,88,0.00,,---,0.00,VWS V14.01,2013-12-20 08:24:00,
2013-12-20 02:30:00,56.7,53.5,29.72,West,266,0.0,0.0,89,0.00,,---,0.00,VWS V14.01,2013-12-20 08:30:00,
2013-12-20 02:32:00,57.9,54.4,29.69,WNW,291,0.0,0.0,88,0.00,,---,0.00,VWS V14.01,2013-12-20 08:32:00,
2013-12-20 02:36:00,56.2,53.0,29.72,West,266,0.0,0.0,89,0.00,,---,0.00,VWS V14.01,2013-12-20 08:36:00,
2013-12-20 02:38:00,58.0,54.5,29.69,WNW,284,0.0,0.0,88,0.00,,---,0.00,VWS V14.01,2013-12-20 08:38:00,
2013-12-20 02:39:00,56.0,52.8,29.72,West,266,0.0,0.0,89,0.00,,---,0.00,VWS V14.01,2013-12-20 08:39:00,
2013-12-20 02:42:00,55.7,52.5,29.72,West,266,0.0,0.0,89,0.00,,---,0.00,VWS V14.01,2013-12-20 08:42:00,
2013-12-20 02:45:00,55.6,52.7,29.72,West,266,0.0,0.0,90,0.00,,---,0.00,VWS V14.01,2013-12-20 08:45:00,
2013-12-20 02:48:00,55.5,52.6,29.72,West,266,0.0,0.0,90,0.00,,---,0.00,VWS V14.01,2013-12-20 08:48:00,
2013-12-20 02:51:00,55.3,52.7,29.73,West,266,0.0,0.0,91,0.00,,---,0.00,VWS V14.01,2013-12-20 08:51:00,
2013-12-20 02:53:00,58.1,54.9,29.70,West,266,0.0,0.0,89,0.00,,---,0.00,VWS V14.01,2013-12-20 08:53:00,
2013-12-20 02:54:00,55.2,52.3,29.73,West,266,0.0,0.0,90,0.00,,---,0.00,VWS V14.01,2013-12-20 08:54:00,
2013-12-20 02:57:00,55.1,52.5,29.73,West,266,0.0,0.0,91,0.00,,---,0.00,VWS V14.01,2013-12-20 08:57:00,
2013-12-20 03:00:00,55.0,52.4,29.72,West,266,0.0,0.0,91,0.00,,---,0.00,VWS V14.01,2013-12-20 09:00:00,
2013-12-20 03:03:00,54.9,52.3,29.72,West,266,0.0,0.0,91,0.00,,---,0.00,VWS V14.01,2013-12-20 09:03:00,
2013-12-20 03:06:00,54.8,52.2,29.73,West,266,0.0,0.0,91,0.00,,---,0.00,VWS V14.01,2013-12-20 09:06:00,
2013-12-20 03:12:00,54.5,51.9,29.73,West,266,0.0,0.0,91,0.00,,---,0.00,VWS V14.01,2013-12-20 09:12:00,
2013-12-20 03:15:00,54.5,52.2,29.73,West,266,0.0,0.0,92,0.00,,---,0.00,VWS V14.01,2013-12-20 09:15:00,
2013-12-20 03:21:00,54.3,51.7,29.73,West,266,0.0,0.0,91,0.00,,---,0.00,VWS V14.01,2013-12-20 09:21:00,
2013-12-20 03:26:00,56.9,53.4,29.72,West,266,0.0,0.0,88,0.00,,---,0.00,VWS V14.01,2013-12-20 09:26:00,
2013-12-20 03:30:00,54.2,51.9,29.73,West,266,0.0,0.0,92,0.00,,---,0.00,VWS V14.01,2013-12-20 09:30:00,
2013-12-20 03:32:00,56.4,53.2,29.72,West,266,0.0,0.0,89,0.00,,---,0.00,VWS V14.01,2013-12-20 09:32:00,
2013-12-20 03:34:00,54.1,51.8,29.73,West,266,0.0,0.0,92,0.00,,---,0.00,VWS V14.01,2013-12-20 09:34:00,
2013-12-20 03:40:00,54.0,51.7,29.73,West,266,0.0,0.0,92,0.00,,---,0.00,VWS V14.01,2013-12-20 09:40:00,
2013-12-20 03:46:00,53.7,51.4,29.73,West,266,0.0,0.0,92,0.00,,---,0.00,VWS V14.01,2013-12-20 09:46:00,
2013-12-20 03:49:00,53.7,51.4,29.73,West,266,0.0,0.0,92,0.00,,---,0.00,VWS V14.01,2013-12-20 09:49:00,
2013-12-20 03:58:00,53.0,50.5,29.73,West,266,0.0,0.0,91,0.00,,---,0.00,VWS V14.01,2013-12-20 09:58:00,
2013-12-20 04:04:00,52.8,50.5,29.73,West,266,0.0,0.0,92,0.00,,---,0.00,VWS V14.01,2013-12-20 10:04:00,
2013-12-20 04:08:00,54.6,52.0,29.73,West,266,0.0,0.0,91,0.00,,---,0.00,VWS V14.01,2013-12-20 10:08:00,
2013-12-20 04:17:00,54.5,52.2,29.73,West,266,0.0,0.0,92,0.00,,---,0.00,VWS V14.01,2013-12-20 10:17:00,
2013-12-20 04:22:00,52.5,50.5,29.73,West,266,0.0,0.0,93,0.00,,---,0.00,VWS V14.01,2013-12-20 10:22:00,
2013-12-20 04:24:00,54.2,51.9,29.73,West,266,0.0,0.0,92,0.00,,---,0.00,VWS V14.01,2013-12-20 10:24:00,
2013-12-20 04:25:00,52.4,50.4,29.74,West,266,0.0,0.0,93,0.00,,---,0.00,VWS V14.01,2013-12-20 10:25:00,
2013-12-20 04:34:00,52.3,50.3,29.73,West,266,0.0,0.0,93,0.00,,---,0.00,VWS V14.01,2013-12-20 10:34:00,
2013-12-20 04:36:00,54.1,51.8,29.73,West,266,0.0,0.0,92,0.00,,---,0.00,VWS V14.01,2013-12-20 10:36:00,
2013-12-20 04:42:00,53.8,51.5,29.73,West,266,0.0,0.0,92,0.00,,---,0.00,VWS V14.01,2013-12-20 10:42:00,
2013-12-20 04:49:00,51.8,49.8,29.73,West,266,0.0,0.0,93,0.00,,---,0.00,VWS V14.01,2013-12-20 10:49:00,
2013-12-20 04:51:00,53.4,51.1,29.73,West,266,0.0,0.0,92,0.00,,---,0.00,VWS V14.01,2013-12-20 10:51:00,
2013-12-20 04:59:00,52.9,50.6,29.73,West,266,0.0,0.0,92,0.00,,---,0.00,VWS V14.01,2013-12-20 10:59:00,
2013-12-20 05:00:00,52.9,50.6,29.74,West,266,0.0,0.0,92,0.00,,---,0.00,VWS V14.01,2013-12-20 11:00:00,
2013-12-20 05:06:00,52.8,50.5,29.73,West,266,0.0,0.0,92,0.00,,---,0.00,VWS V14.01,2013-12-20 11:06:00,
2013-12-20 05:10:00,53.6,52.2,29.73,SE,134,0.0,0.0,95,0.00,,---,0.00,VWS V14.01,2013-12-20 11:10:00,
2013-12-20 05:12:00,52.6,50.3,29.74,West,266,0.0,0.0,92,0.00,,---,0.00,VWS V14.01,2013-12-20 11:12:00,
2013-12-20 05:15:00,52.6,50.6,29.74,West,266,0.0,0.0,93,0.00,,---,0.00,VWS V14.01,2013-12-20 11:15:00,
2013-12-20 05:18:00,52.6,50.6,29.74,West,266,0.0,0.0,93,0.00,,---,0.00,VWS V14.01,2013-12-20 11:18:00,
2013-12-20 05:22:00,53.5,51.8,29.74,NNE,28,0.0,0.0,94,0.00,,---,0.00,VWS V14.01,2013-12-20 11:22:00,
2013-12-20 05:27:00,52.4,50.4,29.73,West,266,0.0,0.0,93,0.00,,---,0.00,VWS V14.01,2013-12-20 11:27:00,
2013-12-20 05:29:00,52.4,50.4,29.73,West,266,0.0,0.0,93,0.00,,---,0.00,VWS V14.01,2013-12-20 11:29:00,
2013-12-20 05:36:00,52.2,50.2,29.73,West,266,0.0,0.0,93,0.00,,---,0.00,VWS V14.01,2013-12-20 11:36:00,
2013-12-20 05:42:00,51.9,49.9,29.74,West,266,0.0,0.0,93,0.00,,---,0.00,VWS V14.01,2013-12-20 11:42:00,
2013-12-20 05:49:00,53.9,52.2,29.74,NNE,28,0.0,0.0,94,0.00,,---,0.00,VWS V14.01,2013-12-20 11:49:00,
2013-12-20 05:51:00,51.7,49.8,29.74,West,266,0.0,0.0,93,0.00,,---,0.00,VWS V14.01,2013-12-20 11:51:00,
2013-12-20 05:54:00,51.9,50.2,29.74,SE,142,0.0,0.0,94,0.00,,---,0.00,VWS V14.01,2013-12-20 11:54:00,
2013-12-20 05:57:00,52.4,50.7,29.73,SE,132,0.0,0.0,94,0.00,,---,0.00,VWS V14.01,2013-12-20 11:57:00,
2013-12-20 06:00:00,52.9,51.5,29.73,SE,129,0.0,0.0,95,0.00,,---,0.00,VWS V14.01,2013-12-20 12:00:00,
2013-12-20 06:06:00,53.5,52.1,29.73,SE,134,0.0,0.0,95,0.00,,---,0.00,VWS V14.01,2013-12-20 12:06:00,
2013-12-20 06:12:00,53.7,52.3,29.74,SE,134,0.0,0.0,95,0.00,,---,0.00,VWS V14.01,2013-12-20 12:12:00,
2013-12-20 06:15:00,53.7,52.0,29.74,SE,134,0.0,0.0,94,0.00,,---,0.00,VWS V14.01,2013-12-20 12:15:00,
2013-12-20 06:18:00,53.6,51.9,29.74,SE,134,0.0,0.0,94,0.00,,---,0.00,VWS V14.01,2013-12-20 12:18:00,
2013-12-20 06:24:00,53.6,51.9,29.74,NNE,28,0.0,0.0,94,0.00,,---,0.00,VWS V14.01,2013-12-20 12:24:00,
2013-12-20 06:27:00,53.8,52.4,29.74,NNE,28,0.0,0.0,95,0.00,,---,0.00,VWS V14.01,2013-12-20 12:27:00,
2013-12-20 06:29:00,53.8,52.4,29.74,NNE,28,0.0,0.0,95,0.00,,---,0.00,VWS V14.01,2013-12-20 12:29:00,
2013-12-20 06:30:00,53.8,52.1,29.74,NNE,28,0.0,0.0,94,0.00,,---,0.00,VWS V14.01,2013-12-20 12:30:00,
2013-12-20 06:36:00,53.9,52.2,29.74,NNE,28,0.0,0.0,94,0.00,,---,0.00,VWS V14.01,2013-12-20 12:36:00,
2013-12-20 06:40:00,53.9,52.2,29.74,NNE,28,0.0,0.0,94,0.00,,---,0.00,VWS V14.01,2013-12-20 12:40:00,
2013-12-20 06:43:00,53.9,52.2,29.73,NNE,28,0.0,0.0,94,0.00,,---,0.00,VWS V14.01,2013-12-20 12:43:00,
2013-12-20 06:46:00,53.9,52.2,29.73,NNE,28,0.0,0.0,94,0.00,,---,0.00,VWS V14.01,2013-12-20 12:46:00,
2013-12-20 06:52:00,54.0,52.3,29.74,NNE,28,0.0,0.0,94,0.00,,---,0.00,VWS V14.01,2013-12-20 12:52:00,
2013-12-20 06:55:00,54.0,52.3,29.74,NE,53,0.0,0.0,94,0.00,,---,0.00,VWS V14.01,2013-12-20 12:55:00,
2013-12-20 06:58:00,54.1,52.4,29.74,ENE,59,0.0,0.0,94,0.00,,---,0.00,VWS V14.01,2013-12-20 12:58:00,
2013-12-20 06:59:00,54.1,52.4,29.74,ENE,59,0.0,0.0,94,0.00,,---,0.00,VWS V14.01,2013-12-20 12:59:00,
2013-12-20 07:04:00,54.1,52.4,29.75,ENE,59,0.0,0.0,94,0.00,,---,0.00,VWS V14.01,2013-12-20 13:04:00,
2013-12-20 07:07:00,54.1,52.4,29.75,ENE,59,0.0,0.0,94,0.00,,---,0.00,VWS V14.01,2013-12-20 13:07:00,
2013-12-20 07:10:00,54.0,52.3,29.75,ENE,59,0.0,0.0,94,0.00,,---,0.00,VWS V14.01,2013-12-20 13:10:00,
2013-12-20 07:13:00,53.9,52.2,29.76,ENE,59,0.0,0.0,94,0.00,,---,0.00,VWS V14.01,2013-12-20 13:13:00,
2013-12-20 07:16:00,53.9,52.2,29.76,ENE,59,0.0,0.0,94,0.00,,---,0.00,VWS V14.01,2013-12-20 13:16:00,
2013-12-20 07:19:00,54.0,52.3,29.77,ENE,61,0.0,0.0,94,0.00,,---,0.00,VWS V14.01,2013-12-20 13:19:00,
2013-12-20 07:25:00,54.0,52.3,29.77,ENE,61,0.0,0.0,94,0.00,,---,0.00,VWS V14.01,2013-12-20 13:25:00,
2013-12-20 07:28:00,54.0,52.3,29.77,ENE,61,0.0,0.0,94,0.00,,---,0.00,VWS V14.01,2013-12-20 13:28:00,
2013-12-20 07:31:00,54.0,52.3,29.77,ENE,61,0.0,0.0,94,0.00,,---,0.00,VWS V14.01,2013-12-20 13:31:00,
2013-12-20 07:37:00,53.9,52.2,29.77,ENE,61,0.0,0.0,94,0.00,,---,0.00,VWS V14.01,2013-12-20 13:37:00,
2013-12-20 07:40:00,53.8,52.1,29.78,ENE,61,0.0,0.0,94,0.00,,---,0.00,VWS V14.01,2013-12-20 13:40:00,
2013-12-20 07:43:00,53.7,52.0,29.79,ENE,60,0.0,0.0,94,0.00,,---,0.00,VWS V14.01,2013-12-20 13:43:00,
2013-12-20 07:46:00,53.7,52.0,29.78,ENE,59,0.0,0.0,94,0.00,,---,0.00,VWS V14.01,2013-12-20 13:46:00,
2013-12-20 07:49:00,53.7,52.0,29.78,ENE,73,0.0,0.0,94,0.00,,---,0.00,VWS V14.01,2013-12-20 13:49:00,
2013-12-20 07:52:00,53.7,52.0,29.79,ENE,73,0.0,0.0,94,0.00,,---,0.00,VWS V14.01,2013-12-20 13:52:00,
2013-12-20 07:55:00,53.7,52.0,29.79,ENE,73,0.0,0.0,94,0.00,,---,0.00,VWS V14.01,2013-12-20 13:55:00,
2013-12-20 08:01:00,53.6,51.9,29.78,ENE,73,0.0,0.0,94,0.00,,---,0.00,VWS V14.01,2013-12-20 14:01:00,
2013-12-20 08:04:00,53.5,51.8,29.78,ENE,73,0.0,0.0,94,0.00,,---,0.00,VWS V14.01,2013-12-20 14:04:00,
2013-12-20 08:07:00,53.3,51.6,29.78,ENE,73,0.0,0.0,94,0.00,,---,0.00,VWS V14.01,2013-12-20 14:07:00,
2013-12-20 08:10:00,53.3,51.6,29.78,NE,46,2.0,3.0,94,0.00,,---,0.00,VWS V14.01,2013-12-20 14:10:00,
2013-12-20 08:13:00,53.3,51.6,29.78,NE,46,0.0,3.0,94,0.00,,---,0.00,VWS V14.01,2013-12-20 14:13:00,
2013-12-20 08:16:00,53.4,51.7,29.77,NE,47,0.0,3.0,94,0.00,,---,0.00,VWS V14.01,2013-12-20 14:16:00,
2013-12-20 08:19:00,53.4,51.7,29.78,NE,47,0.0,3.0,94,0.00,,---,0.00,VWS V14.01,2013-12-20 14:19:00,
2013-12-20 08:22:00,53.4,51.7,29.78,NE,47,0.0,3.0,94,0.00,,---,0.00,VWS V14.01,2013-12-20 14:22:00,
2013-12-20 08:25:00,53.4,51.7,29.79,NE,47,0.0,3.0,94,0.00,,---,0.00,VWS V14.01,2013-12-20 14:25:00,
2013-12-20 08:28:00,53.4,51.7,29.79,NE,47,0.0,3.0,94,0.00,,---,0.00,VWS V14.01,2013-12-20 14:28:00,
2013-12-20 08:29:00,53.4,51.7,29.79,NE,47,0.0,3.0,94,0.00,,---,0.00,VWS V14.01,2013-12-20 14:29:00,
2013-12-20 08:34:00,53.5,52.1,29.78,NE,47,0.0,0.0,95,0.00,,---,0.00,VWS V14.01,2013-12-20 14:34:00,
2013-12-20 08:37:00,53.6,52.2,29.79,NE,46,0.0,0.0,95,0.00,,---,0.00,VWS V14.01,2013-12-20 14:37:00,
2013-12-20 08:40:00,53.8,52.4,29.79,NNW,336,13.0,13.0,95,0.00,,---,0.00,VWS V14.01,2013-12-20 14:40:00,
2013-12-20 08:43:00,53.7,52.3,29.79,North,5,9.0,13.0,95,0.00,,---,0.00,VWS V14.01,2013-12-20 14:43:00,
2013-12-20 08:46:00,52.7,50.2,29.79,NW,325,6.0,14.0,91,0.00,,---,0.00,VWS V14.01,2013-12-20 14:46:00,
2013-12-20 08:49:00,51.7,48.6,29.80,North,355,5.0,14.0,89,0.00,,---,0.00,VWS V14.01,2013-12-20 14:49:00,
2013-12-20 08:52:00,50.6,47.2,29.81,NNE,24,8.0,14.0,88,0.00,,---,0.00,VWS V14.01,2013-12-20 14:52:00,
2013-12-20 08:55:00,49.4,44.8,29.81,NNW,348,9.0,14.0,84,0.00,,---,0.00,VWS V14.01,2013-12-20 14:55:00,
2013-12-20 08:58:00,48.2,43.6,29.81,North,351,7.0,14.0,84,0.00,,---,0.00,VWS V14.01,2013-12-20 14:58:00,
2013-12-20 08:59:00,48.2,43.9,29.81,WNW,292,6.0,14.0,85,0.00,,---,0.00,VWS V14.01,2013-12-20 14:59:00,
2013-12-20 09:02:00,47.3,43.0,29.81,North,360,9.0,13.0,85,0.00,,---,0.00,VWS V14.01,2013-12-20 15:02:00,
2013-12-20 09:05:00,46.6,42.3,29.81,NNW,342,7.0,13.0,85,0.00,,---,0.00,VWS V14.01,2013-12-20 15:05:00,
2013-12-20 09:08:00,46.0,41.8,29.81,North,360,7.0,13.0,85,0.00,,---,0.00,VWS V14.01,2013-12-20 15:08:00,
2013-12-20 09:14:00,45.4,41.2,29.82,North,355,7.0,13.0,85,0.00,,---,0.00,VWS V14.01,2013-12-20 15:14:00,
2013-12-20 09:17:00,45.1,41.2,29.82,North,355,7.0,13.0,86,0.00,,---,0.00,VWS V14.01,2013-12-20 15:17:00,
2013-12-20 09:20:00,44.8,40.6,29.82,North,9,6.0,13.0,85,0.00,,---,0.00,VWS V14.01,2013-12-20 15:20:00,
2013-12-20 09:23:00,44.6,40.4,29.82,NNW,336,9.0,13.0,85,0.00,,---,0.00,VWS V14.01,2013-12-20 15:23:00,
2013-12-20 09:26:00,44.3,40.1,29.82,North,355,13.0,13.0,85,0.00,,---,0.00,VWS V14.01,2013-12-20 15:26:00,
2013-12-20 09:29:00,43.9,39.4,29.82,NNW,347,7.0,13.0,84,0.00,,---,0.00,VWS V14.01,2013-12-20 15:29:00,
2013-12-20 09:32:00,43.6,39.4,29.82,NNW,342,7.0,10.0,85,0.00,,---,0.00,VWS V14.01,2013-12-20 15:32:00,
2013-12-20 09:35:00,43.3,39.1,29.83,North,355,7.0,12.0,85,0.00,,---,0.00,VWS V14.01,2013-12-20 15:35:00,
2013-12-20 09:38:00,43.2,39.0,29.84,NNW,336,4.0,12.0,85,0.00,,---,0.00,VWS V14.01,2013-12-20 15:38:00,
2013-12-20 09:41:00,43.2,39.0,29.85,WNW,300,9.0,12.0,85,0.00,,---,0.00,VWS V14.01,2013-12-20 15:41:00,
2013-12-20 09:44:00,42.9,38.4,29.85,NW,319,9.0,12.0,84,0.00,,---,0.00,VWS V14.01,2013-12-20 15:44:00,
2013-12-20 09:50:00,42.6,38.1,29.85,NNW,348,2.0,13.0,84,0.00,,---,0.00,VWS V14.01,2013-12-20 15:50:00,
2013-12-20 09:53:00,42.6,38.1,29.86,NNW,332,6.0,13.0,84,0.00,,---,0.00,VWS V14.01,2013-12-20 15:53:00,
2013-12-20 09:56:00,42.5,38.0,29.86,NNW,329,9.0,13.0,84,0.00,,---,0.00,VWS V14.01,2013-12-20 15:56:00,
2013-12-20 10:02:00,42.4,37.9,29.86,NNW,342,5.0,7.0,84,0.00,,---,0.00,VWS V14.01,2013-12-20 16:02:00,
2013-12-20 10:05:00,42.3,37.5,29.87,NNW,327,9.0,13.0,83,0.00,,---,0.00,VWS V14.01,2013-12-20 16:05:00,
2013-12-20 10:08:00,42.2,37.7,29.86,NW,318,6.0,13.0,84,0.00,,---,0.00,VWS V14.01,2013-12-20 16:08:00,
2013-12-20 10:11:00,42.0,37.2,29.87,NNW,331,7.0,13.0,83,0.00,,---,0.00,VWS V14.01,2013-12-20 16:11:00,
2013-12-20 10:14:00,42.0,37.5,29.88,NW,304,7.0,13.0,84,0.00,,---,0.00,VWS V14.01,2013-12-20 16:14:00,
2013-12-20 10:17:00,41.8,37.0,29.87,NW,323,4.0,13.0,83,0.00,,---,0.00,VWS V14.01,2013-12-20 16:17:00,
2013-12-20 10:20:00,41.6,36.8,29.89,NW,313,7.0,13.0,83,0.00,,---,0.00,VWS V14.01,2013-12-20 16:20:00,
2013-12-20 10:23:00,41.5,37.0,29.89,NW,323,10.0,13.0,84,0.00,,---,0.00,VWS V14.01,2013-12-20 16:23:00,
2013-12-20 10:26:00,41.4,36.6,29.89,NW,316,4.0,13.0,83,0.00,,---,0.00,VWS V14.01,2013-12-20 16:26:00,
2013-12-20 10:29:00,41.3,36.8,29.89,NW,306,8.0,13.0,84,0.00,,---,0.00,VWS V14.01,2013-12-20 16:29:00,
2013-12-20 10:35:00,41.2,36.4,29.89,NW,326,8.0,13.0,83,0.00,,---,0.00,VWS V14.01,2013-12-20 16:35:00,
2013-12-20 10:38:00,41.1,36.3,29.89,North,350,8.0,13.0,83,0.00,,---,0.00,VWS V14.01,2013-12-20 16:38:00,
2013-12-20 10:41:00,41.0,36.2,29.90,NNW,340,6.0,13.0,83,0.00,,---,0.00,VWS V14.01,2013-12-20 16:41:00,
2013-12-20 10:44:00,40.9,36.1,29.90,NNW,345,6.0,13.0,83,0.00,,---,0.00,VWS V14.01,2013-12-20 16:44:00,
2013-12-20 10:47:00,40.9,36.5,29.89,North,355,7.0,13.0,84,0.00,,---,0.00,VWS V14.01,2013-12-20 16:47:00,
2013-12-20 10:50:00,40.7,36.2,29.89,NNW,346,5.0,13.0,84,0.00,,---,0.00,VWS V14.01,2013-12-20 16:50:00,
2013-12-20 10:53:00,40.6,36.5,29.89,NW,319,5.0,13.0,85,0.00,,---,0.00,VWS V14.01,2013-12-20 16:53:00,
2013-12-20 10:56:00,40.5,36.3,29.89,NW,325,3.0,13.0,85,0.00,,---,0.00,VWS V14.01,2013-12-20 16:56:00,
2013-12-20 10:59:00,40.4,36.5,29.89,NW,310,4.0,13.0,86,0.00,,---,0.00,VWS V14.01,2013-12-20 16:59:00,
2013-12-20 11:02:00,40.2,36.3,29.89,North,355,3.0,10.0,86,0.00,,---,0.00,VWS V14.01,2013-12-20 17:02:00,
2013-12-20 11:05:00,40.1,36.3,29.89,North,11,5.0,10.0,86,0.00,,---,0.00,VWS V14.01,2013-12-20 17:05:00,
2013-12-20 11:08:00,39.9,36.1,29.89,NNW,345,6.0,10.0,86,0.00,,---,0.00,VWS V14.01,2013-12-20 17:08:00,
2013-12-20 11:11:00,39.7,35.9,29.88,NNW,344,2.0,11.0,86,0.00,,---,0.00,VWS V14.01,2013-12-20 17:11:00,
2013-12-20 11:14:00,39.7,36.2,29.88,NNW,343,6.0,11.0,87,0.00,,---,0.00,VWS V14.01,2013-12-20 17:14:00,
2013-12-20 11:17:00,39.7,36.2,29.88,North,355,5.0,11.0,87,0.00,,---,0.00,VWS V14.01,2013-12-20 17:17:00,
2013-12-20 11:21:00,39.6,36.1,29.87,NNW,336,5.0,11.0,87,0.00,,---,0.00,VWS V14.01,2013-12-20 17:21:00,
2013-12-20 11:27:00,39.4,35.9,29.88,NNW,329,4.0,12.0,87,0.00,,---,0.00,VWS V14.01,2013-12-20 17:27:00,
2013-12-20 11:29:00,39.4,36.2,29.88,North,355,5.0,12.0,88,0.00,,---,0.00,VWS V14.01,2013-12-20 17:29:00,
2013-12-20 11:33:00,39.4,36.2,29.88,NNW,328,4.0,7.0,88,0.00,,---,0.00,VWS V14.01,2013-12-20 17:33:00,
2013-12-20 11:36:00,39.3,36.0,29.88,NW,326,6.0,9.0,88,0.00,,---,0.00,VWS V14.01,2013-12-20 17:36:00,
2013-12-20 11:39:00,39.3,36.0,29.88,NNW,337,4.0,9.0,88,0.00,,---,0.00,VWS V14.01,2013-12-20 17:39:00,
2013-12-20 11:42:00,39.4,36.4,29.88,NNW,348,4.0,9.0,89,0.00,,---,0.00,VWS V14.01,2013-12-20 17:42:00,
2013-12-20 11:45:00,39.4,36.4,29.87,NNW,344,3.0,9.0,89,0.00,,---,0.00,VWS V14.01,2013-12-20 17:45:00,
2013-12-20 11:48:00,39.6,36.6,29.86,North,5,1.0,9.0,89,0.00,,---,0.00,VWS V14.01,2013-12-20 17:48:00,
2013-12-20 11:51:00,39.7,37.0,29.86,NW,321,3.0,9.0,90,0.00,,---,0.00,VWS V14.01,2013-12-20 17:51:00,
2013-12-20 11:54:00,39.7,37.0,29.87,NNW,340,5.0,9.0,90,0.00,,---,0.00,VWS V14.01,2013-12-20 17:54:00,
2013-12-20 11:57:00,39.7,36.7,29.87,NW,326,5.0,9.0,89,0.00,,---,0.00,VWS V14.01,2013-12-20 17:57:00,
2013-12-20 12:03:00,39.5,36.5,29.87,North,355,4.0,8.0,89,0.00,,---,0.00,VWS V14.01,2013-12-20 18:03:00,
2013-12-20 12:06:00,39.4,36.4,29.87,North,360,6.0,8.0,89,0.00,,---,0.00,VWS V14.01,2013-12-20 18:06:00,
2013-12-20 12:09:00,39.3,36.3,29.87,NNW,342,3.0,8.0,89,0.00,,---,0.00,VWS V14.01,2013-12-20 18:09:00,
2013-12-20 12:12:00,39.3,36.3,29.87,North,360,5.0,10.0,89,0.00,,---,0.00,VWS V14.01,2013-12-20 18:12:00,
2013-12-20 12:15:00,39.3,36.3,29.86,North,360,3.0,10.0,89,0.00,,---,0.00,VWS V14.01,2013-12-20 18:15:00,
2013-12-20 12:18:00,39.4,36.7,29.86,NNW,348,6.0,10.0,90,0.00,,---,0.00,VWS V14.01,2013-12-20 18:18:00,
2013-12-20 12:21:00,39.2,36.2,29.86,NW,321,7.0,10.0,89,0.00,,---,0.00,VWS V14.01,2013-12-20 18:21:00,
2013-12-20 12:24:00,39.0,36.0,29.86,NW,323,5.0,10.0,89,0.00,,---,0.00,VWS V14.01,2013-12-20 18:24:00,
2013-12-20 12:27:00,39.0,36.3,29.86,NNW,327,9.0,11.0,90,0.00,,---,0.00,VWS V14.01,2013-12-20 18:27:00,
2013-12-20 12:29:00,38.9,35.9,29.86,NNW,340,4.0,12.0,89,0.00,,---,0.00,VWS V14.01,2013-12-20 18:29:00,
2013-12-20 12:34:00,38.8,35.8,29.84,NNW,340,4.0,8.0,89,0.00,,---,0.00,VWS V14.01,2013-12-20 18:34:00,
2013-12-20 12:36:00,39.0,36.3,29.86,NW,322,5.0,7.0,90,0.00,,---,0.00,VWS V14.01,2013-12-20 18:36:00,
2013-12-20 12:39:00,39.1,36.4,29.85,NNW,343,3.0,8.0,90,0.00,,---,0.00,VWS V14.01,2013-12-20 18:39:00,
2013-12-20 12:42:00,38.9,35.9,29.84,NNW,328,9.0,11.0,89,0.00,,---,0.00,VWS V14.01,2013-12-20 18:42:00,
2013-12-20 12:45:00,38.9,35.9,29.84,NNW,339,5.0,11.0,89,0.00,,---,0.00,VWS V14.01,2013-12-20 18:45:00,
2013-12-20 12:48:00,38.9,36.2,29.84,NNW,327,5.0,11.0,90,0.00,,---,0.00,VWS V14.01,2013-12-20 18:48:00,
2013-12-20 12:53:00,39.1,36.1,29.82,NNE,20,2.0,8.0,89,0.00,,---,0.00,VWS V14.01,2013-12-20 18:53:00,
2013-12-20 12:54:00,38.9,36.2,29.83,North,9,4.0,11.0,90,0.00,,---,0.00,VWS V14.01,2013-12-20 18:54:00,
2013-12-20 12:57:00,38.8,36.1,29.83,NNW,327,5.0,11.0,90,0.00,,---,0.00,VWS V14.01,2013-12-20 18:57:00,
2013-12-20 13:00:00,38.8,36.1,29.83,NNE,12,0.0,5.0,90,0.00,,---,0.00,VWS V14.01,2013-12-20 19:00:00,
2013-12-20 13:03:00,38.8,35.8,29.84,NNE,12,0.0,5.0,89,0.00,,---,0.00,VWS V14.01,2013-12-20 19:03:00,
2013-12-20 13:09:00,38.9,36.2,29.84,NNW,331,3.0,8.0,90,0.00,,---,0.00,VWS V14.01,2013-12-20 19:09:00,
2013-12-20 13:12:00,38.9,35.9,29.85,NNW,332,6.0,10.0,89,0.00,,---,0.00,VWS V14.01,2013-12-20 19:12:00,
2013-12-20 13:15:00,38.8,35.8,29.84,NW,308,7.0,10.0,89,0.00,,---,0.00,VWS V14.01,2013-12-20 19:15:00,
2013-12-20 13:18:00,38.8,35.8,29.84,NNW,333,3.0,10.0,89,0.00,,---,0.00,VWS V14.01,2013-12-20 19:18:00,
2013-12-20 13:21:00,38.8,35.8,29.84,NNW,335,5.0,10.0,89,0.00,,---,0.00,VWS V14.01,2013-12-20 19:21:00,
2013-12-20 13:24:00,38.9,36.2,29.84,NNW,330,5.0,10.0,90,0.00,,---,0.00,VWS V14.01,2013-12-20 19:24:00,
2013-12-20 13:27:00,39.0,36.3,29.84,NW,311,5.0,10.0,90,0.00,,---,0.00,VWS V14.01,2013-12-20 19:27:00,
2013-12-20 13:31:00,38.9,35.9,29.84,NW,308,4.0,6.0,89,0.00,,---,0.00,VWS V14.01,2013-12-20 19:31:00,
2013-12-20 13:37:00,38.8,36.1,29.84,NW,321,5.0,8.0,90,0.00,,---,0.00,VWS V14.01,2013-12-20 19:37:00,
2013-12-20 13:43:00,38.9,35.9,29.84,North,355,5.0,8.0,89,0.00,,---,0.00,VWS V14.01,2013-12-20 19:43:00,
2013-12-20 13:46:00,38.9,35.9,29.83,NW,319,4.0,8.0,89,0.00,,---,0.00,VWS V14.01,2013-12-20 19:46:00,
2013-12-20 13:55:00,39.1,36.1,29.82,NNW,343,3.0,8.0,89,0.00,,---,0.00,VWS V14.01,2013-12-20 19:55:00,
2013-12-20 13:58:00,39.1,36.1,29.82,North,351,3.0,8.0,89,0.00,,---,0.00,VWS V14.01,2013-12-20 19:58:00,
2013-12-20 13:59:00,39.1,36.1,29.82,NNW,343,6.0,8.0,89,0.00,,---,0.00,VWS V14.01,2013-12-20 19:59:00,
2013-12-20 14:04:00,39.0,36.0,29.81,North,360,4.0,9.0,89,0.00,,---,0.00,VWS V14.01,2013-12-20 20:04:00,
2013-12-20 14:10:00,38.9,35.9,29.82,NNW,338,4.0,9.0,89,0.00,,---,0.00,VWS V14.01,2013-12-20 20:10:00,
2013-12-20 14:13:00,39.0,36.0,29.81,North,349,4.0,9.0,89,0.00,,---,0.00,VWS V14.01,2013-12-20 20:13:00,
2013-12-20 14:16:00,38.9,35.9,29.82,NW,324,7.0,9.0,89,0.00,,---,0.00,VWS V14.01,2013-12-20 20:16:00,
2013-12-20 14:22:00,38.7,35.5,29.83,NW,321,5.0,10.0,88,0.00,,---,0.00,VWS V14.01,2013-12-20 20:22:00,
2013-12-20 14:28:00,38.6,35.6,29.82,NNW,343,5.0,10.0,89,0.00,,---,0.00,VWS V14.01,2013-12-20 20:28:00,
2013-12-20 14:29:00,38.6,35.6,29.82,North,355,5.0,10.0,89,0.00,,---,0.00,VWS V14.01,2013-12-20 20:29:00,
2013-12-20 14:34:00,38.6,35.6,29.82,North,355,4.0,7.0,89,0.00,,---,0.00,VWS V14.01,2013-12-20 20:34:00,
2013-12-20 14:37:00,38.7,35.7,29.81,North,5,5.0,7.0,89,0.00,,---,0.00,VWS V14.01,2013-12-20 20:37:00,
2013-12-20 14:40:00,38.7,35.7,29.81,North,360,7.0,11.0,89,0.00,,---,0.00,VWS V14.01,2013-12-20 20:40:00,
2013-12-20 14:43:00,38.6,35.6,29.82,North,349,0.0,11.0,89,0.00,,---,0.00,VWS V14.01,2013-12-20 20:43:00,
2013-12-20 14:46:00,38.5,35.5,29.82,NNW,333,5.0,11.0,89,0.00,,---,0.00,VWS V14.01,2013-12-20 20:46:00,
2013-12-20 14:49:00,38.5,35.5,29.82,NE,43,4.0,11.0,89,0.00,,---,0.00,VWS V14.01,2013-12-20 20:49:00,
2013-12-20 14:55:00,38.4,35.5,29.84,NNW,347,6.0,11.0,89,0.00,,---,0.00,VWS V14.01,2013-12-20 20:55:00,
2013-12-20 14:59:00,38.3,35.6,29.83,North,355,7.0,11.0,90,0.00,,---,0.00,VWS V14.01,2013-12-20 20:59:00,
2013-12-20 15:02:00,38.2,35.2,29.83,North,360,5.0,8.0,89,0.00,,---,0.00,VWS V14.01,2013-12-20 21:02:00,
2013-12-20 15:08:00,37.9,35.0,29.83,NNW,339,1.0,11.0,89,0.00,,---,0.00,VWS V14.01,2013-12-20 21:08:00,
2013-12-20 15:09:00,37.0,34.9,29.80,NNE,28,9.0,10.0,92,0.01,,---,0.01,VWS V14.01,2013-12-20 21:09:00,
2013-12-20 15:11:00,37.9,35.2,29.82,North,360,5.0,11.0,90,0.00,,---,0.00,VWS V14.01,2013-12-20 21:11:00,
2013-12-20 15:14:00,37.9,35.2,29.82,North,355,3.0,11.0,90,0.00,,---,0.00,VWS V14.01,2013-12-20 21:14:00,
2013-12-20 15:20:00,37.8,35.1,29.81,NNE,14,3.0,11.0,90,0.01,,---,0.01,VWS V14.01,2013-12-20 21:20:00,
2013-12-20 15:21:00,36.7,34.3,29.81,North,355,3.0,11.0,91,0.01,,---,0.01,VWS V14.01,2013-12-20 21:21:00,
2013-12-20 15:23:00,37.7,35.0,29.81,North,355,3.0,11.0,90,0.01,,---,0.01,VWS V14.01,2013-12-20 21:23:00,
2013-12-20 15:26:00,37.7,35.3,29.80,NNW,348,3.0,11.0,91,0.01,,---,0.01,VWS V14.01,2013-12-20 21:26:00,
2013-12-20 15:29:00,37.8,35.4,29.79,NNE,24,6.0,11.0,91,0.01,,---,0.01,VWS V14.01,2013-12-20 21:29:00,
2013-12-20 15:32:00,37.7,35.3,29.78,North,360,4.0,9.0,91,0.01,,---,0.01,VWS V14.01,2013-12-20 21:32:00,
2013-12-20 15:35:00,37.6,35.2,29.77,North,11,8.0,11.0,91,0.01,,---,0.01,VWS V14.01,2013-12-20 21:35:00,
2013-12-20 15:41:00,37.6,35.5,29.77,North,355,5.0,11.0,92,0.01,,---,0.01,VWS V14.01,2013-12-20 21:41:00,
2013-12-20 15:44:00,37.6,35.5,29.77,NE,36,4.0,11.0,92,0.01,,---,0.01,VWS V14.01,2013-12-20 21:44:00,
2013-12-20 15:47:00,37.5,35.4,29.78,NNE,27,4.0,11.0,92,0.01,,---,0.01,VWS V14.01,2013-12-20 21:47:00,
2013-12-20 15:53:00,37.2,35.1,29.77,ENE,61,4.0,12.0,92,0.01,,---,0.01,VWS V14.01,2013-12-20 21:53:00,
2013-12-20 15:59:00,36.9,34.5,29.79,NNE,13,3.0,12.0,91,0.01,,---,0.01,VWS V14.01,2013-12-20 21:59:00,
2013-12-20 16:02:00,36.9,34.8,29.79,NNE,13,2.0,7.0,92,0.01,,---,0.01,VWS V14.01,2013-12-20 22:02:00,
2013-12-20 16:05:00,36.9,34.8,29.80,NNE,17,4.0,8.0,92,0.01,,---,0.01,VWS V14.01,2013-12-20 22:05:00,
2013-12-20 16:11:00,36.8,34.4,29.80,NNE,13,10.0,11.0,91,0.01,,---,0.01,VWS V14.01,2013-12-20 22:11:00,
2013-12-20 16:14:00,36.8,34.4,29.80,NNE,23,5.0,11.0,91,0.01,,---,0.01,VWS V14.01,2013-12-20 22:14:00,
2013-12-20 16:17:00,36.8,34.4,29.81,NNW,347,5.0,11.0,91,0.01,,---,0.01,VWS V14.01,2013-12-20 22:17:00,
2013-12-20 16:23:00,36.8,34.4,29.81,North,5,6.0,11.0,91,0.01,,---,0.01,VWS V14.01,2013-12-20 22:23:00,
2013-12-20 16:26:00,36.8,34.4,29.82,NNW,346,5.0,11.0,91,0.01,,---,0.01,VWS V14.01,2013-12-20 22:26:00,
2013-12-20 16:29:00,36.8,34.4,29.82,NNW,327,4.0,5.0,91,0.00,,---,0.01,VWS V14.01,2013-12-20 22:29:00,
2013-12-20 16:35:00,36.7,34.3,29.83,NW,323,3.0,10.0,91,0.00,,---,0.01,VWS V14.01,2013-12-20 22:35:00,
2013-12-20 16:38:00,36.8,34.4,29.82,North,5,4.0,10.0,91,0.00,,---,0.01,VWS V14.01,2013-12-20 22:38:00,
2013-12-20 16:40:00,36.1,33.5,29.81,North,355,6.0,7.0,90,0.00,,---,0.01,VWS V14.01,2013-12-20 22:40:00,
2013-12-20 16:41:00,36.8,34.4,29.83,NNW,342,2.0,10.0,91,0.00,,---,0.01,VWS V14.01,2013-12-20 22:41:00,
2013-12-20 16:44:00,36.7,34.3,29.83,North,5,6.0,10.0,91,0.00,,---,0.01,VWS V14.01,2013-12-20 22:44:00,
2013-12-20 16:47:00,36.6,34.0,29.83,North,5,5.0,10.0,90,0.00,,---,0.01,VWS V14.01,2013-12-20 22:47:00,
2013-12-20 16:50:00,36.6,34.0,29.83,NNE,24,4.0,10.0,90,0.00,,---,0.01,VWS V14.01,2013-12-20 22:50:00,
2013-12-20 16:56:00,36.6,34.2,29.83,NNW,348,3.0,10.0,91,0.00,,---,0.01,VWS V14.01,2013-12-20 22:56:00,
2013-12-20 16:59:00,36.6,34.0,29.83,NNW,338,2.0,10.0,90,0.00,,---,0.01,VWS V14.01,2013-12-20 22:59:00,
2013-12-20 17:05:00,36.6,34.2,29.83,NNW,341,3.0,9.0,91,0.00,,---,0.01,VWS V14.01,2013-12-20 23:05:00,
2013-12-20 17:08:00,36.5,33.8,29.83,North,355,4.0,9.0,90,0.00,,---,0.01,VWS V14.01,2013-12-20 23:08:00,
2013-12-20 17:11:00,36.5,33.8,29.82,North,355,4.0,9.0,90,0.00,,---,0.01,VWS V14.01,2013-12-20 23:11:00,
2013-12-20 17:14:00,36.4,33.8,29.83,NNW,336,4.0,9.0,90,0.00,,---,0.01,VWS V14.01,2013-12-20 23:14:00,
2013-12-20 17:17:00,36.4,34.0,29.82,NNW,342,6.0,9.0,91,0.00,,---,0.01,VWS V14.01,2013-12-20 23:17:00,
2013-12-20 17:21:00,36.4,34.0,29.82,North,355,6.0,9.0,91,0.00,,---,0.01,VWS V14.01,2013-12-20 23:21:00,
2013-12-20 17:27:00,36.2,33.8,29.82,NNW,332,4.0,9.0,91,0.00,,---,0.01,VWS V14.01,2013-12-20 23:27:00,
2013-12-20 17:29:00,36.2,33.6,29.82,North,355,3.0,9.0,90,0.00,,---,0.01,VWS V14.01,2013-12-20 23:29:00,
2013-12-20 17:33:00,36.1,33.7,29.82,NNE,13,3.0,7.0,91,0.00,,---,0.01,VWS V14.01,2013-12-20 23:33:00,
2013-12-20 17:42:00,36.0,33.6,29.80,NNE,22,7.0,9.0,91,0.00,,---,0.01,VWS V14.01,2013-12-20 23:42:00,
2013-12-20 17:48:00,35.9,33.5,29.80,NE,35,0.0,9.0,91,0.00,,---,0.01,VWS V14.01,2013-12-20 23:48:00,
2013-12-20 17:51:00,35.9,33.5,29.80,NNE,18,5.0,9.0,91,0.00,,---,0.01,VWS V14.01,2013-12-20 23:51:00,
2013-12-20 17:52:00,34.0,31.4,29.79,NNW,331,6.0,9.0,90,0.00,,---,0.01,VWS V14.01,2013-12-20 23:52:00,
2013-12-20 17:54:00,35.8,33.4,29.81,North,355,3.0,9.0,91,0.00,,---,0.01,VWS V14.01,2013-12-20 23:54:00,
2013-12-20 17:57:00,35.6,33.2,29.81,North,351,4.0,9.0,91,0.00,,---,0.01,VWS V14.01,2013-12-20 23:57:00,
2013-12-20 18:00:00,35.6,33.2,29.81,NNE,20,2.0,7.0,91,0.00,,---,0.01,VWS V14.01,2013-12-21 00:00:00,
2013-12-20 18:03:00,35.5,33.1,29.80,NE,37,6.0,8.0,91,0.00,,---,0.01,VWS V14.01,2013-12-21 00:03:00,
2013-12-20 18:06:00,35.4,33.0,29.80,North,5,4.0,8.0,91,0.00,,---,0.01,VWS V14.01,2013-12-21 00:06:00,
2013-12-20 18:09:00,35.3,32.9,29.80,North,5,5.0,9.0,91,0.00,,---,0.01,VWS V14.01,2013-12-21 00:09:00,
2013-12-20 18:12:00,35.2,32.8,29.80,NNE,18,7.0,9.0,91,0.00,,---,0.01,VWS V14.01,2013-12-21 00:12:00,
2013-12-20 18:15:00,35.2,32.8,29.81,NNE,12,5.0,9.0,91,0.00,,---,0.01,VWS V14.01,2013-12-21 00:15:00,
2013-12-20 18:18:00,35.2,32.8,29.81,North,5,3.0,9.0,91,0.00,,---,0.01,VWS V14.01,2013-12-21 00:18:00,
2013-12-20 18:22:00,33.5,30.9,29.80,NNW,338,4.0,10.0,90,0.00,,---,0.01,VWS V14.01,2013-12-21 00:22:00,
2013-12-20 18:24:00,35.1,32.7,29.81,NNE,20,2.0,9.0,91,0.00,,---,0.01,VWS V14.01,2013-12-21 00:24:00,
2013-12-20 18:27:00,35.1,33.0,29.81,North,11,3.0,9.0,92,0.00,,---,0.01,VWS V14.01,2013-12-21 00:27:00,
2013-12-20 18:30:00,35.0,32.9,29.81,North,355,2.0,8.0,92,0.00,,---,0.01,VWS V14.01,2013-12-21 00:30:00,
2013-12-20 18:33:00,35.0,32.9,29.81,NNE,18,6.0,8.0,92,0.00,,---,0.01,VWS V14.01,2013-12-21 00:33:00,
2013-12-20 18:36:00,34.8,32.5,29.81,NNW,336,6.0,9.0,91,0.00,,---,0.01,VWS V14.01,2013-12-21 00:36:00,
2013-12-20 18:39:00,34.5,31.9,29.81,NNW,348,4.0,9.0,90,0.00,,---,0.01,VWS V14.01,2013-12-21 00:39:00,
2013-12-20 18:45:00,34.2,31.3,29.80,NNE,15,4.0,9.0,89,0.00,,---,0.01,VWS V14.01,2013-12-21 00:45:00,
2013-12-20 18:48:00,34.1,31.5,29.78,North,360,7.0,9.0,90,0.00,,---,0.01,VWS V14.01,2013-12-21 00:48:00,
2013-12-20 18:54:00,33.9,31.3,29.79,NW,318,6.0,10.0,90,0.00,,---,0.01,VWS V14.01,2013-12-21 00:54:00,
2013-12-20 18:56:00,33.0,30.4,29.83,North,350,8.0,12.0,90,0.00,,---,0.01,VWS V14.01,2013-12-21 00:56:00,
2013-12-20 18:57:00,33.9,31.3,29.80,North,360,7.0,10.0,90,0.00,,---,0.01,VWS V14.01,2013-12-21 00:57:00,
2013-12-20 18:59:00,33.8,31.2,29.80,NNW,346,4.0,10.0,90,0.00,,---,0.01,VWS V14.01,2013-12-21 00:59:00,
2013-12-20 19:00:00,33.8,31.2,29.80,North,360,2.0,6.0,90,0.00,,---,0.01,VWS V14.01,2013-12-21 01:00:00,
2013-12-20 19:03:00,33.9,31.3,29.80,NNE,19,4.0,8.0,90,0.00,,---,0.01,VWS V14.01,2013-12-21 01:03:00,
2013-12-20 19:06:00,33.8,31.2,29.80,NNE,13,7.0,9.0,90,0.00,,---,0.01,VWS V14.01,2013-12-21 01:06:00,
2013-12-20 19:09:00,33.7,31.1,29.80,NNW,331,6.0,10.0,90,0.00,,---,0.01,VWS V14.01,2013-12-21 01:09:00,
2013-12-20 19:11:00,33.0,30.4,29.85,NNW,338,8.0,13.0,90,0.00,,---,0.01,VWS V14.01,2013-12-21 01:11:00,
2013-12-20 19:12:00,33.7,31.1,29.80,NNW,344,2.0,10.0,90,0.00,,---,0.01,VWS V14.01,2013-12-21 01:12:00,
2013-12-20 19:14:00,32.8,29.9,29.86,NW,305,8.0,14.0,89,0.00,,---,0.01,VWS V14.01,2013-12-21 01:14:00,
2013-12-20 19:18:00,33.6,31.0,29.80,NNW,336,4.0,10.0,90,0.00,,---,0.01,VWS V14.01,2013-12-21 01:18:00,
2013-12-20 19:24:00,33.5,31.2,29.80,NNW,348,4.0,10.0,91,0.00,,---,0.01,VWS V14.01,2013-12-21 01:24:00,
2013-12-20 19:27:00,33.4,30.8,29.80,NNW,344,6.0,10.0,90,0.00,,---,0.01,VWS V14.01,2013-12-21 01:27:00,
2013-12-20 19:29:00,33.4,30.8,29.80,NNW,342,6.0,10.0,90,0.00,,---,0.01,VWS V14.01,2013-12-21 01:29:00,
2013-12-20 19:30:00,33.4,30.8,29.80,NNE,22,6.0,7.0,90,0.00,,---,0.01,VWS V14.01,2013-12-21 01:30:00,
2013-12-20 19:33:00,33.4,30.8,29.79,North,355,5.0,8.0,90,0.00,,---,0.01,VWS V14.01,2013-12-21 01:33:00,
2013-12-20 19:37:00,33.4,30.8,29.80,NNW,327,4.0,8.0,90,0.00,,---,0.01,VWS V14.01,2013-12-21 01:37:00,
2013-12-20 19:40:00,33.3,30.7,29.81,NNW,340,3.0,8.0,90,0.00,,---,0.01,VWS V14.01,2013-12-21 01:40:00,
2013-12-20 19:43:00,33.3,30.7,29.81,NNW,346,9.0,9.0,90,0.00,,---,0.01,VWS V14.01,2013-12-21 01:43:00,
2013-12-20 19:46:00,33.2,30.6,29.82,North,349,5.0,12.0,90,0.00,,---,0.01,VWS V14.01,2013-12-21 01:46:00,
2013-12-20 19:49:00,33.1,30.5,29.82,NNW,338,7.0,12.0,90,0.00,,---,0.01,VWS V14.01,2013-12-21 01:49:00,
2013-12-20 19:56:00,31.4,29.6,29.87,WNW,302,10.0,15.0,93,0.00,,---,0.01,VWS V14.01,2013-12-21 01:56:00,
2013-12-20 19:58:00,33.1,30.8,29.84,NNW,328,7.0,12.0,91,0.00,,---,0.01,VWS V14.01,2013-12-21 01:58:00,
2013-12-20 19:59:00,33.1,30.8,29.84,NNW,345,8.0,12.0,91,0.00,,---,0.01,VWS V14.01,2013-12-21 01:59:00,
2013-12-20 20:01:00,33.1,30.8,29.84,NNE,13,7.0,10.0,91,0.00,,---,0.01,VWS V14.01,2013-12-21 02:01:00,
2013-12-20 20:02:00,31.4,29.9,29.86,NW,325,10.0,13.0,94,0.00,,---,0.01,VWS V14.01,2013-12-21 02:02:00,
2013-12-20 20:04:00,33.1,30.8,29.84,NW,320,6.0,10.0,91,0.00,,---,0.01,VWS V14.01,2013-12-21 02:04:00,
2013-12-20 20:07:00,33.1,30.8,29.84,WNW,299,9.0,12.0,91,0.00,,---,0.01,VWS V14.01,2013-12-21 02:07:00,
2013-12-20 20:16:00,32.7,29.8,29.86,NNW,329,9.0,14.0,89,0.00,,---,0.01,VWS V14.01,2013-12-21 02:16:00,
2013-12-20 20:22:00,32.6,30.0,29.86,NW,315,13.0,14.0,90,0.00,,---,0.01,VWS V14.01,2013-12-21 02:22:00,
2013-12-20 20:28:00,32.3,29.7,29.86,NW,313,7.0,14.0,90,0.00,,---,0.01,VWS V14.01,2013-12-21 02:28:00,
2013-12-20 20:29:00,31.4,29.9,29.85,NNW,337,7.0,15.0,94,0.00,,---,0.01,VWS V14.01,2013-12-21 02:29:00,
2013-12-20 20:31:00,32.2,29.9,29.86,WNW,302,9.0,13.0,91,0.00,,---,0.01,VWS V14.01,2013-12-21 02:31:00,
2013-12-20 20:32:00,31.4,29.9,29.85,NNW,333,9.0,11.0,94,0.00,,---,0.01,VWS V14.01,2013-12-21 02:32:00,
2013-12-20 20:37:00,31.7,29.4,29.85,NW,319,11.0,15.0,91,0.00,,---,0.01,VWS V14.01,2013-12-21 02:37:00,
2013-12-20 20:40:00,31.7,29.6,29.85,NW,313,9.0,15.0,92,0.00,,---,0.01,VWS V14.01,2013-12-21 02:40:00,
2013-12-20 20:43:00,31.6,29.5,29.85,NW,326,10.0,15.0,92,0.00,,---,0.01,VWS V14.01,2013-12-21 02:43:00,
2013-12-20 20:44:00,31.3,29.8,29.85,North,11,5.0,11.0,94,0.00,,---,0.01,VWS V14.01,2013-12-21 02:44:00,
2013-12-20 20:46:00,31.5,29.5,29.85,NNW,329,10.0,15.0,92,0.00,,---,0.01,VWS V14.01,2013-12-21 02:46:00,
2013-12-20 20:49:00,31.4,29.6,29.85,NNW,331,6.0,15.0,93,0.00,,---,0.01,VWS V14.01,2013-12-21 02:49:00,
2013-12-20 20:50:00,31.4,29.9,29.84,NNW,342,2.0,11.0,94,0.00,,---,0.01,VWS V14.01,2013-12-21 02:50:00,
2013-12-20 20:52:00,31.4,29.6,29.86,West,275,10.0,15.0,93,0.00,,---,0.01,VWS V14.01,2013-12-21 02:52:00,
2013-12-20 20:58:00,31.5,29.7,29.86,NW,306,10.0,15.0,93,0.00,,---,0.01,VWS V14.01,2013-12-21 02:58:00,
2013-12-20 20:59:00,31.5,29.7,29.86,NW,318,7.0,15.0,93,0.00,,---,0.01,VWS V14.01,2013-12-21 02:59:00,
2013-12-20 21:04:00,31.4,29.9,29.86,NW,325,6.0,13.0,94,0.00,,---,0.01,VWS V14.01,2013-12-21 03:04:00,
2013-12-20 21:07:00,31.4,29.9,29.86,NW,321,9.0,13.0,94,0.00,,---,0.01,VWS V14.01,2013-12-21 03:07:00,
2013-12-20 21:09:00,31.5,30.0,29.83,NE,39,3.0,5.0,94,0.00,,---,0.01,VWS V14.01,2013-12-21 03:09:00,
2013-12-20 21:10:00,31.4,29.9,29.86,NW,310,9.0,14.0,94,0.00,,---,0.01,VWS V14.01,2013-12-21 03:10:00,
2013-12-20 21:13:00,31.4,29.9,29.86,NW,323,12.0,14.0,94,0.00,,---,0.01,VWS V14.01,2013-12-21 03:13:00,
2013-12-20 21:19:00,31.3,29.8,29.85,NW,315,5.0,14.0,94,0.00,,---,0.01,VWS V14.01,2013-12-21 03:19:00,
2013-12-20 21:24:00,31.7,30.2,29.82,NE,45,2.0,7.0,94,0.00,,---,0.01,VWS V14.01,2013-12-21 03:24:00,
2013-12-20 21:25:00,31.3,29.8,29.85,NNW,329,6.0,15.0,94,0.00,,---,0.01,VWS V14.01,2013-12-21 03:25:00,
2013-12-20 21:29:00,31.4,29.9,29.85,NNW,330,6.0,15.0,94,0.00,,---,0.01,VWS V14.01,2013-12-21 03:29:00,
2013-12-20 21:34:00,31.3,29.8,29.86,NNW,332,4.0,11.0,94,0.00,,---,0.01,VWS V14.01,2013-12-21 03:34:00,
2013-12-20 21:37:00,31.2,29.7,29.84,NNE,15,3.0,11.0,94,0.00,,---,0.01,VWS V14.01,2013-12-21 03:37:00,
2013-12-20 21:40:00,31.3,29.8,29.84,North,5,0.0,11.0,94,0.00,,---,0.01,VWS V14.01,2013-12-21 03:40:00,
2013-12-20 21:46:00,31.3,29.8,29.84,NNE,25,5.0,11.0,94,0.00,,---,0.01,VWS V14.01,2013-12-21 03:46:00,
2013-12-20 21:53:00,31.4,29.9,29.85,NW,323,3.0,11.0,94,0.00,,---,0.01,VWS V14.01,2013-12-21 03:53:00,
2013-12-20 21:56:00,31.4,29.9,29.85,NNW,338,3.0,11.0,94,0.00,,---,0.01,VWS V14.01,2013-12-21 03:56:00,
2013-12-20 21:59:00,31.4,29.9,29.84,NNE,12,4.0,11.0,94,0.00,,---,0.01,VWS V14.01,2013-12-21 03:59:00,
2013-12-20 22:05:00,31.5,30.0,29.83,North,360,0.0,5.0,94,0.00,,---,0.01,VWS V14.01,2013-12-21 04:05:00,
2013-12-20 22:06:00,32.3,30.8,29.79,NNW,336,5.0,8.0,94,0.00,,---,0.01,VWS V14.01,2013-12-21 04:06:00,
2013-12-20 22:09:00,32.3,30.8,29.80,NNW,344,0.0,8.0,94,0.00,,---,0.01,VWS V14.01,2013-12-21 04:09:00,
2013-12-20 22:11:00,31.6,30.1,29.82,NNE,26,3.0,5.0,94,0.00,,---,0.01,VWS V14.01,2013-12-21 04:11:00,
2013-12-20 22:12:00,32.4,30.9,29.81,NNW,344,0.0,8.0,94,0.00,,---,0.01,VWS V14.01,2013-12-21 04:12:00,
2013-12-20 22:14:00,31.6,30.1,29.82,NNE,20,0.0,7.0,94,0.00,,---,0.01,VWS V14.01,2013-12-21 04:14:00,
2013-12-20 22:15:00,32.3,30.8,29.82,NNW,340,0.0,8.0,94,0.00,,---,0.01,VWS V14.01,2013-12-21 04:15:00,
2013-12-20 22:17:00,31.7,30.2,29.82,NE,44,2.0,7.0,94,0.00,,---,0.01,VWS V14.01,2013-12-21 04:17:00,
2013-12-20 22:18:00,32.4,30.9,29.82,WSW,254,0.0,8.0,94,0.00,,---,0.01,VWS V14.01,2013-12-21 04:18:00,
2013-12-20 22:20:00,31.6,30.1,29.81,North,5,5.0,7.0,94,0.00,,---,0.01,VWS V14.01,2013-12-21 04:20:00,
2013-12-20 22:21:00,32.4,30.9,29.83,WNW,289,2.0,8.0,94,0.00,,---,0.01,VWS V14.01,2013-12-21 04:21:00,
2013-12-20 22:24:00,32.6,31.1,29.83,WSW,246,0.0,8.0,94,0.00,,---,0.01,VWS V14.01,2013-12-21 04:24:00,
2013-12-20 22:26:00,31.7,30.2,29.82,NE,55,3.0,7.0,94,0.00,,---,0.01,VWS V14.01,2013-12-21 04:26:00,
2013-12-20 22:27:00,32.7,31.2,29.83,WSW,254,3.0,8.0,94,0.01,,---,0.02,VWS V14.01,2013-12-21 04:27:00,
2013-12-20 22:29:00,31.7,30.2,29.81,NNE,13,3.0,5.0,94,0.00,,---,0.01,VWS V14.01,2013-12-21 04:29:00,
2013-12-20 22:30:00,32.7,31.2,29.83,West,281,0.0,8.0,94,0.01,,---,0.02,VWS V14.01,2013-12-21 04:30:00,
2013-12-20 22:32:00,31.7,30.2,29.81,NNE,22,0.0,5.0,94,0.00,,---,0.01,VWS V14.01,2013-12-21 04:32:00,
2013-12-20 22:33:00,32.8,31.3,29.82,WNW,286,0.0,5.0,94,0.02,,---,0.03,VWS V14.01,2013-12-21 04:33:00,
2013-12-20 22:35:00,31.9,30.4,29.81,NE,38,0.0,5.0,94,0.00,,---,0.01,VWS V14.01,2013-12-21 04:35:00,
2013-12-20 22:36:00,32.9,31.4,29.82,WNW,294,0.0,5.0,94,0.02,,---,0.03,VWS V14.01,2013-12-21 04:36:00,
2013-12-20 22:38:00,31.9,30.4,29.80,North,11,0.0,5.0,94,0.00,,---,0.01,VWS V14.01,2013-12-21 04:38:00,
2013-12-20 22:39:00,32.9,31.4,29.82,WNW,296,0.0,5.0,94,0.03,,---,0.04,VWS V14.01,2013-12-21 04:39:00,
2013-12-20 22:41:00,32.0,30.5,29.80,NE,52,2.0,5.0,94,0.00,,---,0.01,VWS V14.01,2013-12-21 04:41:00,
2013-12-20 22:42:00,32.9,31.4,29.82,NW,304,2.0,5.0,94,0.04,,---,0.05,VWS V14.01,2013-12-21 04:42:00,
2013-12-20 22:44:00,32.0,30.5,29.80,NNE,28,2.0,5.0,94,0.00,,---,0.01,VWS V14.01,2013-12-21 04:44:00,
2013-12-20 22:45:00,33.0,31.5,29.82,West,279,0.0,5.0,94,0.04,,---,0.05,VWS V14.01,2013-12-21 04:45:00,
2013-12-20 22:48:00,33.0,31.5,29.83,West,273,2.0,5.0,94,0.04,,---,0.05,VWS V14.01,2013-12-21 04:48:00,
2013-12-20 22:50:00,32.1,30.6,29.79,NNE,15,3.0,5.0,94,0.00,,---,0.01,VWS V14.01,2013-12-21 04:50:00,
2013-12-20 22:51:00,33.1,31.6,29.83,WSW,257,6.0,6.0,94,0.05,,---,0.06,VWS V14.01,2013-12-21 04:51:00,
2013-12-20 22:55:00,33.1,31.6,29.83,WSW,257,1.0,6.0,94,0.05,,---,0.06,VWS V14.01,2013-12-21 04:55:00,
2013-12-20 22:56:00,32.1,30.6,29.80,NNE,18,0.0,5.0,94,0.00,,---,0.01,VWS V14.01,2013-12-21 04:56:00,
2013-12-20 22:58:00,33.1,31.6,29.83,West,266,3.0,6.0,94,0.05,,---,0.06,VWS V14.01,2013-12-21 04:58:00,
2013-12-20 22:59:00,32.1,30.6,29.81,NNE,18,0.0,0.0,94,0.00,,---,0.01,VWS V14.01,2013-12-21 04:59:00,
2013-12-20 23:00:00,33.1,31.6,29.82,NW,307,3.0,6.0,94,0.06,,---,0.07,VWS V14.01,2013-12-21 05:00:00,
2013-12-20 23:01:00,33.1,31.6,29.81,WNW,282,3.0,5.0,94,0.06,,---,0.07,VWS V14.01,2013-12-21 05:01:00,
2013-12-20 23:04:00,33.1,31.8,29.81,WNW,298,3.0,5.0,95,0.07,,---,0.08,VWS V14.01,2013-12-21 05:04:00,
2013-12-20 23:07:00,33.1,31.8,29.81,WNW,298,0.0,5.0,95,0.08,,---,0.09,VWS V14.01,2013-12-21 05:07:00,
2013-12-20 23:10:00,33.1,31.8,29.80,WNW,294,0.0,5.0,95,0.08,,---,0.09,VWS V14.01,2013-12-21 05:10:00,
2013-12-20 23:13:00,33.2,31.9,29.80,WNW,294,0.0,5.0,95,0.08,,---,0.09,VWS V14.01,2013-12-21 05:13:00,
2013-12-20 23:16:00,33.3,32.0,29.81,WNW,294,0.0,5.0,95,0.09,,---,0.10,VWS V14.01,2013-12-21 05:16:00,
2013-12-20 23:19:00,33.4,32.1,29.80,WNW,290,0.0,5.0,95,0.09,,---,0.10,VWS V14.01,2013-12-21 05:19:00,
2013-12-20 23:22:00,33.4,32.1,29.79,WNW,290,0.0,5.0,95,0.09,,---,0.10,VWS V14.01,2013-12-21 05:22:00,
2013-12-20 23:25:00,33.4,32.1,29.79,WNW,290,0.0,5.0,95,0.09,,---,0.10,VWS V14.01,2013-12-21 05:25:00,
2013-12-20 23:28:00,33.4,32.1,29.79,WSW,254,0.0,5.0,95,0.09,,---,0.10,VWS V14.01,2013-12-21 05:28:00,
2013-12-20 23:30:00,33.4,32.1,29.79,WSW,254,0.0,5.0,95,0.10,,---,0.11,VWS V14.01,2013-12-21 05:30:00,
2013-12-20 23:31:00,33.4,32.1,29.79,WSW,254,0.0,0.0,95,0.09,,---,0.11,VWS V14.01,2013-12-21 05:31:00,
2013-12-20 23:34:00,33.4,32.1,29.78,WSW,239,0.0,0.0,95,0.10,,---,0.12,VWS V14.01,2013-12-21 05:34:00,
2013-12-20 23:37:00,33.4,32.1,29.77,North,5,0.0,1.0,95,0.10,,---,0.12,VWS V14.01,2013-12-21 05:37:00,
2013-12-20 23:40:00,33.5,32.2,29.77,WSW,244,0.0,1.0,95,0.11,,---,0.13,VWS V14.01,2013-12-21 05:40:00,
2013-12-20 23:43:00,33.5,32.2,29.78,SW,221,1.0,5.0,95,0.11,,---,0.13,VWS V14.01,2013-12-21 05:43:00,
2013-12-20 23:46:00,33.5,32.2,29.78,WSW,257,0.0,5.0,95,0.11,,---,0.13,VWS V14.01,2013-12-21 05:46:00,
2013-12-20 23:49:00,33.5,32.2,29.79,SSW,202,2.0,5.0,95,0.12,,---,0.14,VWS V14.01,2013-12-21 05:49:00,
2013-12-20 23:52:00,33.6,32.3,29.79,SSW,202,0.0,5.0,95,0.13,,---,0.15,VWS V14.01,2013-12-21 05:52:00,
2013-12-20 23:55:00,33.6,32.3,29.79,SSW,202,0.0,5.0,95,0.13,,---,0.15,VWS V14.01,2013-12-21 05:55:00,
2013-12-20 23:58:00,33.7,32.4,29.81,SW,232,2.0,6.0,95,0.14,,---,0.16,VWS V14.01,2013-12-21 05:58:00,